createdAt,value
2023-03-31T00:00:13.243Z,1005.50
2023-03-31T00:01:13.159Z,1005.52
2023-03-31T00:02:18.270Z,1005.47
2023-03-31T00:03:13.747Z,1005.49
2023-03-31T00:04:14.441Z,1005.37
2023-03-31T00:05:13.823Z,1005.40
2023-03-31T00:06:13.703Z,1005.41
2023-03-31T00:07:13.914Z,1005.38
2023-03-31T00:08:12.930Z,1005.33
2023-03-31T00:09:12.875Z,1005.34
2023-03-31T00:10:17.776Z,1005.36
2023-03-31T00:11:13.770Z,1005.32
2023-03-31T00:12:13.663Z,1005.33
2023-03-31T00:13:13.543Z,1005.34
2023-03-31T00:14:13.461Z,1005.31
2023-03-31T00:15:13.723Z,1005.30
2023-03-31T00:16:13.783Z,1005.26
2023-03-31T00:17:13.713Z,1005.24
2023-03-31T00:18:13.622Z,1005.23
2023-03-31T00:19:13.796Z,1005.24
2023-03-31T00:20:13.823Z,1005.15
2023-03-31T00:21:13.717Z,1005.22
2023-03-31T00:22:13.650Z,1005.15
2023-03-31T00:23:13.836Z,1005.18
2023-03-31T00:24:14.156Z,1005.14
2023-03-31T00:25:13.202Z,1005.13
2023-03-31T00:26:13.225Z,1005.05
2023-03-31T00:27:13.180Z,1005.08
2023-03-31T00:28:13.399Z,1005.04
2023-03-31T00:29:13.470Z,1005.04
2023-03-31T00:30:13.536Z,1005.00
2023-03-31T00:31:13.478Z,1005.00
2023-03-31T00:32:13.617Z,1004.96
2023-03-31T00:33:13.917Z,1004.96
2023-03-31T00:34:12.906Z,1004.87
2023-03-31T00:35:12.795Z,1004.85
2023-03-31T00:36:14.297Z,1004.92
2023-03-31T00:37:13.516Z,1004.85
2023-03-31T00:38:14.020Z,1004.86
2023-03-31T00:39:13.142Z,1004.83
2023-03-31T00:40:13.303Z,1004.86
2023-03-31T00:41:13.118Z,1004.84
2023-03-31T00:42:13.129Z,1004.79
2023-03-31T00:43:13.462Z,1004.75
2023-03-31T00:44:13.504Z,1004.73
2023-03-31T00:45:13.560Z,1004.70
2023-03-31T00:46:13.402Z,1004.68
2023-03-31T00:47:13.304Z,1004.62
2023-03-31T00:48:13.359Z,1004.60
2023-03-31T00:49:13.286Z,1004.59
2023-03-31T00:50:13.171Z,1004.56
2023-03-31T00:51:13.327Z,1004.57
2023-03-31T00:52:13.343Z,1004.55
2023-03-31T00:53:13.222Z,1004.55
2023-03-31T00:54:13.288Z,1004.55
2023-03-31T00:55:13.464Z,1004.54
2023-03-31T00:56:13.487Z,1004.59
2023-03-31T00:57:13.588Z,1004.61
2023-03-31T00:58:13.639Z,1004.57
2023-03-31T00:59:13.856Z,1004.49
2023-03-31T01:00:13.731Z,1004.49
2023-03-31T01:01:13.835Z,1004.51
2023-03-31T01:02:12.803Z,1004.47
2023-03-31T01:03:13.825Z,1004.45
2023-03-31T01:04:13.020Z,1004.43
2023-03-31T01:05:12.933Z,1004.40
2023-03-31T01:06:12.918Z,1004.38
2023-03-31T01:07:12.894Z,1004.37
2023-03-31T01:08:12.909Z,1004.39
2023-03-31T01:09:13.056Z,1004.36
2023-03-31T01:10:13.276Z,1004.34
2023-03-31T01:11:13.460Z,1004.32
2023-03-31T01:12:13.536Z,1004.31
2023-03-31T01:13:13.988Z,1004.32
2023-03-31T01:14:12.901Z,1004.31
2023-03-31T01:15:12.908Z,1004.34
2023-03-31T01:16:12.738Z,1004.34
2023-03-31T01:17:13.790Z,1004.28
2023-03-31T01:18:13.862Z,1004.26
2023-03-31T01:19:12.880Z,1004.26
2023-03-31T01:20:12.809Z,1004.18
2023-03-31T01:21:13.667Z,1004.15
2023-03-31T01:22:13.745Z,1004.13
2023-03-31T01:23:13.734Z,1004.09
2023-03-31T01:24:13.845Z,1004.02
2023-03-31T01:25:13.812Z,1004.07
2023-03-31T01:26:14.163Z,1004.00
2023-03-31T01:27:13.264Z,1004.03
2023-03-31T01:28:13.307Z,1003.97
2023-03-31T01:29:13.184Z,1003.91
2023-03-31T01:30:13.072Z,1003.93
2023-03-31T01:31:13.554Z,1003.89
2023-03-31T01:32:13.692Z,1003.94
2023-03-31T01:33:13.792Z,1003.99
2023-03-31T01:34:13.875Z,1003.90
2023-03-31T01:35:12.785Z,1003.91
2023-03-31T01:36:13.736Z,1003.88
2023-03-31T01:37:13.936Z,1003.86
2023-03-31T01:38:13.409Z,1003.83
2023-03-31T01:39:13.547Z,1003.78
2023-03-31T01:40:13.363Z,1003.79
2023-03-31T01:41:13.606Z,1003.79
2023-03-31T01:42:13.518Z,1003.79
2023-03-31T01:43:13.335Z,1003.74
2023-03-31T01:44:13.320Z,1003.70
2023-03-31T01:45:13.296Z,1003.64
2023-03-31T01:46:13.308Z,1003.67
2023-03-31T01:47:13.244Z,1003.62
2023-03-31T01:48:13.654Z,1003.67
2023-03-31T01:49:14.217Z,1003.67
2023-03-31T01:50:13.395Z,1003.60
2023-03-31T01:51:13.239Z,1003.56
2023-03-31T01:52:13.154Z,1003.54
2023-03-31T01:53:13.587Z,1003.55
2023-03-31T01:54:13.538Z,1003.49
2023-03-31T01:55:13.890Z,1003.44
2023-03-31T01:56:13.083Z,1003.45
2023-03-31T01:57:13.076Z,1003.46
2023-03-31T01:58:13.157Z,1003.43
2023-03-31T01:59:13.434Z,1003.42
2023-03-31T02:00:13.996Z,1003.34
2023-03-31T02:01:13.291Z,1003.36
2023-03-31T02:02:14.215Z,1003.36
2023-03-31T02:03:13.751Z,1003.31
2023-03-31T02:04:13.782Z,1003.30
2023-03-31T02:05:13.688Z,1003.28
2023-03-31T02:06:13.733Z,1003.30
2023-03-31T02:07:14.072Z,1003.30
2023-03-31T02:08:13.079Z,1003.26
2023-03-31T02:09:18.166Z,1003.24
2023-03-31T02:10:13.151Z,1003.21
2023-03-31T02:11:13.063Z,1003.18
2023-03-31T02:12:13.187Z,1003.18
2023-03-31T02:13:12.970Z,1003.22
2023-03-31T02:14:13.345Z,1003.20
2023-03-31T02:15:13.353Z,1003.21
2023-03-31T02:16:13.352Z,1003.18
2023-03-31T02:17:13.244Z,1003.16
2023-03-31T02:18:13.179Z,1003.13
2023-03-31T02:19:13.257Z,1003.11
2023-03-31T02:20:13.272Z,1003.12
2023-03-31T02:21:13.219Z,1003.07
2023-03-31T02:22:13.294Z,1003.02
2023-03-31T02:23:13.338Z,1003.00
2023-03-31T02:24:13.364Z,1003.02
2023-03-31T02:25:13.370Z,1002.98
2023-03-31T02:26:13.499Z,1002.94
2023-03-31T02:27:13.977Z,1002.98
2023-03-31T02:28:13.089Z,1002.96
2023-03-31T02:29:12.917Z,1002.95
2023-03-31T02:30:12.757Z,1002.89
2023-03-31T02:31:13.698Z,1002.84
2023-03-31T02:32:13.626Z,1002.86
2023-03-31T02:33:13.539Z,1002.86
2023-03-31T02:34:13.461Z,1002.82
2023-03-31T02:35:13.501Z,1002.78
2023-03-31T02:36:13.522Z,1002.69
2023-03-31T02:37:13.762Z,1002.74
2023-03-31T02:38:14.181Z,1002.69
2023-03-31T02:39:13.834Z,1002.67
2023-03-31T02:40:13.826Z,1002.69
2023-03-31T02:41:13.745Z,1002.65
2023-03-31T02:42:13.741Z,1002.66
2023-03-31T02:43:13.930Z,1002.59
2023-03-31T02:44:13.330Z,1002.63
2023-03-31T02:45:13.437Z,1002.63
2023-03-31T02:46:13.402Z,1002.52
2023-03-31T02:47:13.739Z,1002.54
2023-03-31T02:48:13.631Z,1002.47
2023-03-31T02:49:13.606Z,1002.48
2023-03-31T02:50:13.551Z,1002.51
2023-03-31T02:51:13.450Z,1002.44
2023-03-31T02:52:14.102Z,1002.39
2023-03-31T02:53:13.164Z,1002.43
2023-03-31T02:54:13.155Z,1002.36
2023-03-31T02:55:13.188Z,1002.23
2023-03-31T02:56:13.123Z,1002.26
2023-03-31T02:57:13.060Z,1002.26
2023-03-31T02:58:13.039Z,1002.24
2023-03-31T02:59:13.315Z,1002.22
2023-03-31T03:00:13.270Z,1002.17
2023-03-31T03:01:13.250Z,1002.14
2023-03-31T03:02:13.597Z,1002.09
2023-03-31T03:03:13.691Z,1002.10
2023-03-31T03:04:12.896Z,1002.03
2023-03-31T03:05:12.772Z,1002.00
2023-03-31T03:06:13.942Z,1001.98
2023-03-31T03:07:12.844Z,1001.97
2023-03-31T03:08:13.910Z,1001.90
2023-03-31T03:09:12.808Z,1001.91
2023-03-31T03:10:14.020Z,1001.87
2023-03-31T03:11:12.993Z,1001.85
2023-03-31T03:12:12.907Z,1001.77
2023-03-31T03:13:12.834Z,1001.78
2023-03-31T03:14:14.065Z,1001.72
2023-03-31T03:15:14.369Z,1001.62
2023-03-31T03:16:13.698Z,1001.64
2023-03-31T03:17:13.696Z,1001.62
2023-03-31T03:18:13.583Z,1001.59
2023-03-31T03:19:13.614Z,1001.48
2023-03-31T03:20:13.489Z,1001.56
2023-03-31T03:21:13.677Z,1001.53
2023-03-31T03:22:13.892Z,1001.52
2023-03-31T03:23:12.839Z,1001.49
2023-03-31T03:24:13.943Z,1001.48
2023-03-31T03:25:13.139Z,1001.48
2023-03-31T03:26:13.202Z,1001.46
2023-03-31T03:27:13.135Z,1001.51
2023-03-31T03:28:13.297Z,1001.48
2023-03-31T03:29:13.233Z,1001.45
2023-03-31T03:30:13.107Z,1001.45
2023-03-31T03:31:13.047Z,1001.38
2023-03-31T03:32:13.242Z,1001.39
2023-03-31T03:33:15.455Z,1001.32
2023-03-31T03:34:13.128Z,1001.32
2023-03-31T03:35:13.350Z,1001.25
2023-03-31T03:36:14.921Z,1001.23
2023-03-31T03:37:13.052Z,1001.17
2023-03-31T03:38:12.994Z,1001.17
2023-03-31T03:39:13.125Z,1001.12
2023-03-31T03:40:13.397Z,1001.03
2023-03-31T03:41:13.736Z,1001.03
2023-03-31T03:42:14.199Z,1001.00
2023-03-31T03:43:13.363Z,1001.02
2023-03-31T03:44:13.315Z,1001.03
2023-03-31T03:45:13.372Z,1001.04
2023-03-31T03:46:13.970Z,1001.04
2023-03-31T03:47:13.071Z,1001.02
2023-03-31T03:48:13.267Z,1001.00
2023-03-31T03:49:13.193Z,1000.98
2023-03-31T03:50:15.799Z,1000.91
2023-03-31T03:51:13.366Z,1000.83
2023-03-31T03:52:13.687Z,1000.87
2023-03-31T03:53:13.517Z,1000.75
2023-03-31T03:54:13.413Z,1000.73
2023-03-31T03:55:13.532Z,1000.68
2023-03-31T03:56:13.404Z,1000.63
2023-03-31T03:57:13.315Z,1000.63
2023-03-31T03:58:13.450Z,1000.61
2023-03-31T03:59:13.632Z,1000.71
2023-03-31T04:00:13.743Z,1000.67
2023-03-31T04:01:13.740Z,1000.67
2023-03-31T04:02:13.981Z,1000.63
2023-03-31T04:03:13.513Z,1000.71
2023-03-31T04:04:13.622Z,1000.70
2023-03-31T04:05:13.750Z,1000.66
2023-03-31T04:06:13.759Z,1000.62
2023-03-31T04:07:13.803Z,1000.59
2023-03-31T04:08:14.074Z,1000.54
2023-03-31T04:09:13.041Z,1000.51
2023-03-31T04:10:13.027Z,1000.47
2023-03-31T04:11:13.217Z,1000.37
2023-03-31T04:12:13.243Z,1000.34
2023-03-31T04:13:13.565Z,1000.31
2023-03-31T04:14:13.605Z,1000.30
2023-03-31T04:15:13.542Z,1000.30
2023-03-31T04:16:13.725Z,1000.33
2023-03-31T04:17:13.680Z,1000.27
2023-03-31T04:18:15.062Z,1000.31
2023-03-31T04:19:13.603Z,1000.30
2023-03-31T04:20:13.617Z,1000.30
2023-03-31T04:21:13.454Z,1000.23
2023-03-31T04:22:13.608Z,1000.15
2023-03-31T04:23:13.651Z,1000.14
2023-03-31T04:24:13.552Z,1000.13
2023-03-31T04:25:13.502Z,1000.17
2023-03-31T04:26:13.385Z,1000.15
2023-03-31T04:27:13.259Z,1000.16
2023-03-31T04:28:13.270Z,1000.15
2023-03-31T04:29:13.201Z,1000.12
2023-03-31T04:30:13.059Z,1000.11
2023-03-31T04:31:13.181Z,1000.06
2023-03-31T04:32:13.369Z,1000.09
2023-03-31T04:33:13.675Z,1000.11
2023-03-31T04:34:13.704Z,1000.04
2023-03-31T04:35:13.791Z,1000.03
2023-03-31T04:36:13.790Z,999.94
2023-03-31T04:37:13.737Z,999.94
2023-03-31T04:38:14.131Z,999.92
2023-03-31T04:39:13.075Z,999.93
2023-03-31T04:40:13.038Z,999.86
2023-03-31T04:41:12.834Z,999.92
2023-03-31T04:42:14.061Z,999.89
2023-03-31T04:43:13.085Z,999.86
2023-03-31T04:44:13.031Z,999.75
2023-03-31T04:45:13.156Z,999.72
2023-03-31T04:46:13.203Z,999.69
2023-03-31T04:47:13.553Z,999.76
2023-03-31T04:48:13.633Z,999.79
2023-03-31T04:49:13.869Z,999.79
2023-03-31T04:50:16.157Z,999.83
2023-03-31T04:51:13.551Z,999.88
2023-03-31T04:52:13.799Z,999.94
2023-03-31T04:53:14.062Z,999.87
2023-03-31T04:54:12.962Z,999.80
2023-03-31T04:55:12.834Z,999.79
2023-03-31T04:56:13.892Z,999.72
2023-03-31T04:57:12.948Z,999.72
2023-03-31T04:58:13.073Z,999.66
2023-03-31T04:59:13.420Z,999.75
2023-03-31T05:00:13.761Z,999.69
2023-03-31T05:01:13.963Z,999.64
2023-03-31T05:02:13.148Z,999.68
2023-03-31T05:03:13.174Z,999.69
2023-03-31T05:04:13.159Z,999.69
2023-03-31T05:05:18.172Z,999.59
2023-03-31T05:06:13.207Z,999.60
2023-03-31T05:07:13.409Z,999.59
2023-03-31T05:08:13.449Z,999.58
2023-03-31T05:09:13.618Z,999.60
2023-03-31T05:10:13.730Z,999.50
2023-03-31T05:11:14.235Z,999.52
2023-03-31T05:12:13.199Z,999.47
2023-03-31T05:13:13.310Z,999.42
2023-03-31T05:14:13.313Z,999.38
2023-03-31T05:15:13.347Z,999.30
2023-03-31T05:16:13.263Z,999.27
2023-03-31T05:17:13.355Z,999.28
2023-03-31T05:18:13.324Z,999.18
2023-03-31T05:19:13.386Z,999.17
2023-03-31T05:20:13.281Z,999.19
2023-03-31T05:21:13.204Z,999.19
2023-03-31T05:22:51.712Z,999.12
2023-03-31T05:23:14.139Z,999.15
2023-03-31T05:24:18.304Z,999.10
2023-03-31T05:25:13.496Z,999.17
2023-03-31T05:26:13.695Z,999.10
2023-03-31T05:27:13.685Z,999.05
2023-03-31T05:28:13.854Z,999.01
2023-03-31T05:29:13.889Z,998.93
2023-03-31T05:30:13.626Z,998.88
2023-03-31T05:31:13.713Z,998.88
2023-03-31T05:32:15.251Z,998.90
2023-03-31T05:33:13.118Z,998.90
2023-03-31T05:34:13.025Z,998.85
2023-03-31T05:35:13.095Z,998.80
2023-03-31T05:36:13.116Z,998.79
2023-03-31T05:37:13.400Z,998.73
2023-03-31T05:38:13.624Z,998.68
2023-03-31T05:39:13.480Z,998.61
2023-03-31T05:40:13.285Z,998.57
2023-03-31T05:41:13.536Z,998.55
2023-03-31T05:42:13.591Z,998.48
2023-03-31T05:43:13.798Z,998.48
2023-03-31T05:44:13.699Z,998.45
2023-03-31T05:45:13.880Z,998.47
2023-03-31T05:46:13.110Z,998.43
2023-03-31T05:47:13.104Z,998.41
2023-03-31T05:48:13.176Z,998.39
2023-03-31T05:49:13.395Z,998.30
2023-03-31T05:50:14.633Z,998.32
2023-03-31T05:51:13.030Z,998.29
2023-03-31T05:52:13.077Z,998.23
2023-03-31T05:53:13.398Z,998.23
2023-03-31T05:54:13.636Z,998.22
2023-03-31T05:55:13.712Z,998.20
2023-03-31T05:56:13.925Z,998.17
2023-03-31T05:57:13.275Z,998.24
2023-03-31T05:58:13.254Z,998.17
2023-03-31T05:59:15.027Z,998.14
2023-03-31T06:00:13.304Z,998.06
2023-03-31T06:01:14.282Z,998.11
2023-03-31T06:02:14.476Z,998.09
2023-03-31T06:03:13.541Z,998.05
2023-03-31T06:04:13.537Z,998.01
2023-03-31T06:05:13.848Z,997.98
2023-03-31T06:06:14.160Z,997.94
2023-03-31T06:07:12.925Z,997.99
2023-03-31T06:08:12.761Z,998.01
2023-03-31T06:09:13.621Z,997.97
2023-03-31T06:10:14.017Z,997.90
2023-03-31T06:11:12.830Z,997.85
2023-03-31T06:12:13.664Z,997.84
2023-03-31T06:13:12.909Z,997.82
2023-03-31T06:14:12.917Z,997.82
2023-03-31T06:15:13.046Z,997.80
2023-03-31T06:16:13.190Z,997.87
2023-03-31T06:17:13.625Z,997.85
2023-03-31T06:18:13.638Z,997.86
2023-03-31T06:19:14.196Z,997.86
2023-03-31T06:20:27.290Z,997.82
2023-03-31T06:21:13.358Z,997.75
2023-03-31T06:22:13.918Z,997.78
2023-03-31T06:23:12.924Z,997.71
2023-03-31T06:24:12.829Z,997.68
2023-03-31T06:25:14.210Z,997.65
2023-03-31T06:26:13.153Z,997.58
2023-03-31T06:27:13.245Z,997.58
2023-03-31T06:28:14.354Z,997.55
2023-03-31T06:29:13.252Z,997.60
2023-03-31T06:30:23.434Z,997.66
2023-03-31T06:31:18.500Z,997.58
2023-03-31T06:32:13.630Z,997.61
2023-03-31T06:33:13.805Z,997.59
2023-03-31T06:34:13.813Z,997.63
2023-03-31T06:35:13.749Z,997.62
2023-03-31T06:36:13.691Z,997.59
2023-03-31T06:37:13.626Z,997.56
2023-03-31T06:38:13.620Z,997.56
2023-03-31T06:39:13.485Z,997.54
2023-03-31T06:40:13.359Z,997.41
2023-03-31T06:41:13.321Z,997.54
2023-03-31T06:42:13.266Z,997.52
2023-03-31T06:43:13.190Z,997.57
2023-03-31T06:44:13.365Z,997.62
2023-03-31T06:45:13.476Z,997.59
2023-03-31T06:46:13.708Z,997.63
2023-03-31T06:47:13.622Z,997.54
2023-03-31T06:48:13.638Z,997.56
2023-03-31T06:49:13.926Z,997.56
2023-03-31T06:50:17.974Z,997.46
2023-03-31T06:51:13.255Z,997.55
2023-03-31T06:52:13.240Z,997.43
2023-03-31T06:53:13.396Z,997.48
2023-03-31T06:54:13.265Z,997.48
2023-03-31T06:55:13.502Z,997.51
2023-03-31T06:56:14.161Z,997.47
2023-03-31T06:57:13.192Z,997.45
2023-03-31T06:58:13.529Z,997.46
2023-03-31T06:59:13.423Z,997.43
2023-03-31T07:00:13.406Z,997.41
2023-03-31T07:01:13.368Z,997.41
2023-03-31T07:02:13.584Z,997.42
2023-03-31T07:03:13.767Z,997.46
2023-03-31T07:04:17.887Z,997.44
2023-03-31T07:05:13.210Z,997.37
2023-03-31T07:06:13.243Z,997.34
2023-03-31T07:07:13.194Z,997.38
2023-03-31T07:08:13.206Z,997.36
2023-03-31T07:09:13.208Z,997.39
2023-03-31T07:10:13.224Z,997.39
2023-03-31T07:11:13.093Z,997.38
2023-03-31T07:12:13.102Z,997.37
2023-03-31T07:13:12.954Z,997.38
2023-03-31T07:14:13.073Z,997.29
2023-03-31T07:15:12.944Z,997.41
2023-03-31T07:16:12.777Z,997.38
2023-03-31T07:17:14.041Z,997.34
2023-03-31T07:18:13.048Z,997.41
2023-03-31T07:19:12.970Z,997.36
2023-03-31T07:20:13.069Z,997.38
2023-03-31T07:21:13.245Z,997.33
2023-03-31T07:22:13.752Z,997.35
2023-03-31T07:23:14.443Z,997.37
2023-03-31T07:24:13.749Z,997.42
2023-03-31T07:25:13.956Z,997.33
2023-03-31T07:26:18.138Z,997.38
2023-03-31T07:27:14.574Z,997.35
2023-03-31T07:28:13.722Z,997.37
2023-03-31T07:29:14.099Z,997.43
2023-03-31T07:30:13.272Z,997.45
2023-03-31T07:31:13.163Z,997.42
2023-03-31T07:32:13.933Z,997.41
2023-03-31T07:33:13.002Z,997.46
2023-03-31T07:34:13.593Z,997.47
2023-03-31T07:35:13.658Z,997.44
2023-03-31T07:36:14.322Z,997.39
2023-03-31T07:37:14.593Z,997.40
2023-03-31T07:38:13.542Z,997.29
2023-03-31T07:39:18.899Z,997.31
2023-03-31T07:40:12.800Z,997.34
2023-03-31T07:41:13.783Z,997.40
2023-03-31T07:42:13.860Z,997.44
2023-03-31T07:43:13.870Z,997.47
2023-03-31T07:44:13.905Z,997.47
2023-03-31T07:45:12.831Z,997.50
2023-03-31T07:46:13.791Z,997.39
2023-03-31T07:47:13.751Z,997.39
2023-03-31T07:48:14.052Z,997.38
2023-03-31T07:49:18.361Z,997.39
2023-03-31T07:50:13.637Z,997.39
2023-03-31T07:51:13.732Z,997.32
2023-03-31T07:52:13.588Z,997.30
2023-03-31T07:53:13.417Z,997.30
2023-03-31T07:54:13.676Z,997.33
2023-03-31T07:55:13.802Z,997.28
2023-03-31T07:56:14.097Z,997.27
2023-03-31T07:57:14.691Z,997.29
2023-03-31T07:58:13.779Z,997.26
2023-03-31T07:59:13.806Z,997.20
2023-03-31T08:00:18.913Z,997.16
2023-03-31T08:01:13.147Z,997.14
2023-03-31T08:02:13.394Z,997.16
2023-03-31T08:03:13.273Z,997.16
2023-03-31T08:04:13.377Z,997.11
2023-03-31T08:05:13.465Z,997.10
2023-03-31T08:06:13.405Z,997.10
2023-03-31T08:07:13.306Z,997.06
2023-03-31T08:08:13.239Z,997.05
2023-03-31T08:09:13.047Z,997.04
2023-03-31T08:10:12.940Z,996.99
2023-03-31T08:11:13.107Z,996.98
2023-03-31T08:12:13.178Z,996.96
2023-03-31T08:13:13.076Z,997.00
2023-03-31T08:14:12.961Z,997.00
2023-03-31T08:15:12.813Z,996.96
2023-03-31T08:16:13.763Z,997.00
2023-03-31T08:18:13.327Z,996.87
2023-03-31T08:19:18.553Z,996.74
2023-03-31T08:20:43.135Z,996.90
2023-03-31T08:21:13.312Z,996.91
2023-03-31T08:22:26.288Z,997.00
2023-03-31T08:23:13.324Z,996.91
2023-03-31T08:24:13.518Z,996.92
2023-03-31T08:25:13.527Z,996.94
2023-03-31T08:27:18.000Z,996.87
2023-03-31T08:28:12.866Z,996.80
2023-03-31T08:29:12.881Z,996.77
2023-03-31T08:30:14.076Z,996.72
2023-03-31T08:31:13.643Z,996.78
2023-03-31T08:32:13.712Z,996.80
2023-03-31T08:33:22.557Z,996.80
2023-03-31T08:34:13.915Z,996.83
2023-03-31T08:35:23.695Z,996.69
2023-03-31T08:36:19.962Z,996.78
2023-03-31T08:37:13.261Z,996.75
2023-03-31T08:38:13.193Z,996.77
2023-03-31T08:39:13.590Z,996.76
2023-03-31T08:40:16.478Z,996.74
2023-03-31T08:41:13.483Z,996.72
2023-03-31T08:42:15.472Z,996.75
2023-03-31T08:43:13.038Z,996.71
2023-03-31T08:44:12.965Z,996.71
2023-03-31T08:45:12.911Z,996.72
2023-03-31T08:46:13.305Z,996.68
2023-03-31T08:47:13.447Z,996.68
2023-03-31T08:48:23.423Z,996.59
2023-03-31T08:49:13.538Z,996.65
2023-03-31T08:50:13.555Z,996.66
2023-03-31T08:51:13.694Z,996.65
2023-03-31T08:53:12.908Z,996.66
2023-03-31T08:54:14.972Z,996.68
2023-03-31T08:55:13.111Z,996.64
2023-03-31T08:56:13.053Z,996.61
2023-03-31T08:57:42.197Z,996.64
2023-03-31T08:58:15.007Z,996.73
2023-03-31T08:59:13.248Z,996.74
2023-03-31T09:00:13.124Z,996.71
2023-03-31T09:01:13.142Z,996.67
2023-03-31T09:02:13.664Z,996.64
2023-03-31T09:03:28.056Z,996.62
2023-03-31T09:04:13.357Z,996.64
2023-03-31T09:05:13.992Z,996.62
2023-03-31T09:06:13.155Z,996.67
2023-03-31T09:07:18.430Z,996.66
2023-03-31T09:08:13.553Z,996.64
2023-03-31T09:09:13.618Z,996.63
2023-03-31T09:10:13.823Z,996.65
2023-03-31T09:11:13.946Z,996.61
2023-03-31T09:12:13.061Z,996.62
2023-03-31T09:13:12.974Z,996.66
2023-03-31T09:14:12.899Z,996.66
2023-03-31T09:15:14.787Z,996.60
2023-03-31T09:16:15.569Z,996.66
2023-03-31T09:17:13.371Z,996.63
2023-03-31T09:18:13.466Z,996.65
2023-03-31T09:19:13.407Z,996.70
2023-03-31T09:20:13.645Z,996.72
2023-03-31T09:21:13.710Z,996.67
2023-03-31T09:22:13.651Z,996.72
2023-03-31T09:23:13.526Z,996.72
2023-03-31T09:24:13.385Z,996.70
2023-03-31T09:25:13.329Z,996.66
2023-03-31T09:26:13.304Z,996.60
2023-03-31T09:27:13.558Z,996.58
2023-03-31T09:28:13.654Z,996.58
2023-03-31T09:29:13.988Z,996.56
2023-03-31T09:30:13.277Z,996.58
2023-03-31T09:31:13.205Z,996.63
2023-03-31T09:32:13.157Z,996.68
2023-03-31T09:33:13.118Z,996.65
2023-03-31T09:34:13.445Z,996.69
2023-03-31T09:35:13.670Z,996.65
2023-03-31T09:36:13.657Z,996.61
2023-03-31T09:37:13.690Z,996.58
2023-03-31T09:38:13.626Z,996.55
2023-03-31T09:39:13.794Z,996.52
2023-03-31T09:40:13.684Z,996.50
2023-03-31T09:41:19.063Z,996.50
2023-03-31T09:42:13.164Z,996.52
2023-03-31T09:43:13.004Z,996.47
2023-03-31T09:44:13.015Z,996.45
2023-03-31T09:45:13.102Z,996.49
2023-03-31T09:46:13.445Z,996.42
2023-03-31T09:47:13.463Z,996.39
2023-03-31T09:48:13.998Z,996.38
2023-03-31T09:49:12.903Z,996.33
2023-03-31T09:50:12.770Z,996.35
2023-03-31T09:51:28.075Z,996.35
2023-03-31T09:52:15.340Z,996.33
2023-03-31T09:53:13.434Z,996.32
2023-03-31T09:54:13.657Z,996.28
2023-03-31T09:55:13.543Z,996.26
2023-03-31T09:56:13.410Z,996.24
2023-03-31T09:57:13.665Z,996.22
2023-03-31T09:58:13.685Z,996.18
2023-03-31T09:59:13.555Z,996.18
2023-03-31T10:00:13.400Z,996.16
2023-03-31T10:01:13.646Z,996.16
2023-03-31T10:02:13.630Z,996.19
2023-03-31T10:03:13.684Z,996.14
2023-03-31T10:04:15.561Z,996.15
2023-03-31T10:05:14.056Z,996.18
2023-03-31T10:06:13.374Z,996.21
2023-03-31T10:07:13.284Z,996.18
2023-03-31T10:08:13.309Z,996.14
2023-03-31T10:09:13.209Z,996.09
2023-03-31T10:10:15.237Z,996.12
2023-03-31T10:11:13.842Z,996.12
2023-03-31T10:12:13.109Z,996.09
2023-03-31T10:13:13.207Z,996.07
2023-03-31T10:14:13.050Z,996.02
2023-03-31T10:15:12.893Z,996.00
2023-03-31T10:16:12.970Z,996.01
2023-03-31T10:17:13.494Z,995.98
2023-03-31T10:18:13.475Z,996.01
2023-03-31T10:19:13.343Z,995.92
2023-03-31T10:20:13.295Z,995.91
2023-03-31T10:21:13.762Z,995.93
2023-03-31T10:22:15.287Z,995.88
2023-03-31T10:23:13.550Z,995.83
2023-03-31T10:24:13.546Z,995.81
2023-03-31T10:25:13.675Z,995.81
2023-03-31T10:26:13.849Z,995.79
2023-03-31T10:27:13.800Z,995.76
2023-03-31T10:28:13.945Z,995.74
2023-03-31T10:29:12.783Z,995.69
2023-03-31T10:30:13.703Z,995.71
2023-03-31T10:31:18.790Z,995.65
2023-03-31T10:32:13.677Z,995.67
2023-03-31T10:33:21.981Z,995.62
2023-03-31T10:34:13.385Z,995.65
2023-03-31T10:35:13.648Z,995.67
2023-03-31T10:36:13.875Z,995.65
2023-03-31T10:37:12.828Z,995.61
2023-03-31T10:38:13.820Z,995.60
2023-03-31T10:39:13.640Z,995.61
2023-03-31T10:40:13.557Z,995.66
2023-03-31T10:41:13.851Z,995.53
2023-03-31T10:42:13.717Z,995.62
2023-03-31T10:43:13.993Z,995.64
2023-03-31T10:44:13.290Z,995.71
2023-03-31T10:45:20.379Z,995.72
2023-03-31T10:46:13.448Z,995.73
2023-03-31T10:47:13.457Z,995.64
2023-03-31T10:48:13.550Z,995.59
2023-03-31T10:49:13.586Z,995.64
2023-03-31T10:50:13.695Z,995.69
2023-03-31T10:51:14.854Z,995.63
2023-03-31T10:52:13.120Z,995.70
2023-03-31T10:53:13.432Z,995.67
2023-03-31T10:54:13.347Z,995.63
2023-03-31T10:55:13.317Z,995.60
2023-03-31T10:56:13.921Z,995.64
2023-03-31T10:57:13.190Z,995.64
2023-03-31T10:58:13.246Z,995.72
2023-03-31T10:59:13.291Z,995.68
2023-03-31T11:00:13.644Z,995.66
2023-03-31T11:01:13.804Z,995.63
2023-03-31T11:02:13.934Z,995.63
2023-03-31T11:03:12.961Z,995.66
2023-03-31T11:04:13.031Z,995.48
2023-03-31T11:05:13.110Z,995.54
2023-03-31T11:06:13.313Z,995.58
2023-03-31T11:07:13.367Z,995.48
2023-03-31T11:08:13.388Z,995.52
2023-03-31T11:09:13.699Z,995.44
2023-03-31T11:10:13.610Z,995.45
2023-03-31T11:11:14.040Z,995.38
2023-03-31T11:12:13.089Z,995.28
2023-03-31T11:13:13.310Z,995.41
2023-03-31T11:14:13.176Z,995.42
2023-03-31T11:15:13.422Z,995.31
2023-03-31T11:16:13.497Z,995.26
2023-03-31T11:17:14.006Z,995.23
2023-03-31T11:18:13.003Z,995.25
2023-03-31T11:19:13.072Z,995.29
2023-03-31T11:20:13.025Z,995.19
2023-03-31T11:21:13.407Z,995.16
2023-03-31T11:22:13.354Z,995.16
2023-03-31T11:23:13.403Z,995.18
2023-03-31T11:24:13.248Z,995.05
2023-03-31T11:25:13.385Z,995.07
2023-03-31T11:26:13.306Z,995.08
2023-03-31T11:27:13.314Z,995.06
2023-03-31T11:28:13.435Z,995.07
2023-03-31T11:29:13.623Z,995.01
2023-03-31T11:30:13.769Z,994.97
2023-03-31T11:31:14.062Z,994.93
2023-03-31T11:32:13.214Z,994.94
2023-03-31T11:33:13.121Z,994.99
2023-03-31T11:34:12.992Z,995.21
2023-03-31T11:35:13.117Z,995.85
2023-03-31T11:36:13.507Z,995.47
2023-03-31T11:37:13.753Z,995.56
2023-03-31T11:38:53.447Z,995.88
2023-03-31T11:39:41.773Z,995.93
2023-03-31T11:40:13.650Z,996.16
2023-03-31T11:41:13.502Z,995.52
2023-03-31T11:42:19.053Z,995.70
2023-03-31T11:43:12.936Z,995.77
2023-03-31T11:44:12.826Z,995.78
2023-03-31T11:45:14.002Z,995.52
2023-03-31T11:46:13.386Z,995.61
2023-03-31T11:47:13.675Z,995.77
2023-03-31T11:48:13.666Z,995.72
2023-03-31T11:49:13.850Z,995.71
2023-03-31T11:50:13.768Z,995.67
2023-03-31T11:51:18.676Z,995.75
2023-03-31T11:52:13.814Z,995.77
2023-03-31T11:53:13.620Z,995.77
2023-03-31T11:54:13.773Z,995.72
2023-03-31T11:55:13.589Z,995.74
2023-03-31T11:56:13.625Z,995.79
2023-03-31T11:57:13.511Z,995.78
2023-03-31T11:58:13.441Z,995.78
2023-03-31T11:59:13.371Z,995.74
2023-03-31T12:00:13.277Z,995.78
2023-03-31T12:01:13.171Z,995.79
2023-03-31T12:02:13.189Z,995.77
2023-03-31T12:03:13.669Z,995.73
2023-03-31T12:04:13.951Z,995.70
2023-03-31T12:05:13.167Z,995.75
2023-03-31T12:06:13.329Z,995.73
2023-03-31T12:07:13.265Z,995.74
2023-03-31T12:08:13.201Z,995.66
2023-03-31T12:09:13.319Z,995.63
2023-03-31T12:10:13.253Z,995.68
2023-03-31T12:11:13.529Z,995.68
2023-03-31T12:12:13.531Z,995.65
2023-03-31T12:13:13.645Z,995.58
2023-03-31T12:14:13.759Z,995.56
2023-03-31T12:15:13.734Z,995.55
2023-03-31T12:16:14.216Z,995.55
2023-03-31T12:17:13.547Z,995.51
2023-03-31T12:18:13.531Z,995.53
2023-03-31T12:19:13.547Z,995.52
2023-03-31T12:20:13.541Z,995.52
2023-03-31T12:21:13.646Z,995.44
2023-03-31T12:22:13.666Z,995.52